createdAt,value
2022-09-12T00:01:54.650Z,16.23
2022-09-12T00:04:23.850Z,13.73
2022-09-12T00:06:53.075Z,12.60
2022-09-12T00:09:22.292Z,12.18
2022-09-12T00:11:51.663Z,12.20
2022-09-12T00:14:21.458Z,12.80
2022-09-12T00:16:50.661Z,11.15
2022-09-12T00:19:20.424Z,12.07
2022-09-12T00:21:49.651Z,10.80
2022-09-12T00:24:18.984Z,9.90
2022-09-12T00:26:48.244Z,8.73
2022-09-12T00:29:19.820Z,18.63
2022-09-12T00:31:49.524Z,6.80
2022-09-12T00:34:18.882Z,6.18
2022-09-12T00:36:48.154Z,5.72
2022-09-12T00:39:18.930Z,5.57
2022-09-12T00:41:48.175Z,6.60
2022-09-12T00:44:26.701Z,6.28
2022-09-12T00:47:07.351Z,5.50
2022-09-12T00:49:41.394Z,5.85
2022-09-12T00:52:14.136Z,5.75
2022-09-12T00:57:16.133Z,5.43
2022-09-12T01:00:06.258Z,4.78
2022-09-12T01:02:36.047Z,3.60
2022-09-12T01:05:05.490Z,4.05
2022-09-12T01:07:40.247Z,4.90
2022-09-12T01:10:11.258Z,4.20
2022-09-12T01:12:42.840Z,4.68
2022-09-12T01:15:12.719Z,4.65
2022-09-12T01:18:05.841Z,4.70
2022-09-12T01:20:57.765Z,5.07
2022-09-12T01:23:50.543Z,4.90
2022-09-12T01:26:41.257Z,4.30
2022-09-12T01:29:37.797Z,4.10
2022-09-12T01:32:16.963Z,3.53
2022-09-12T01:34:50.346Z,3.60
2022-09-12T01:37:43.238Z,3.30
2022-09-12T01:40:26.745Z,4.00
2022-09-12T01:43:19.784Z,3.75
2022-09-12T01:46:04.663Z,3.70
2022-09-12T01:48:42.777Z,3.50
2022-09-12T01:51:19.350Z,3.50
2022-09-12T01:53:54.827Z,3.50
2022-09-12T01:56:31.108Z,4.72
2022-09-12T01:59:30.395Z,3.53
2022-09-12T02:02:33.005Z,3.72
2022-09-12T02:05:08.463Z,3.77
2022-09-12T02:07:54.390Z,4.28
2022-09-12T02:10:31.772Z,3.63
2022-09-12T02:13:24.671Z,4.40
2022-09-12T02:19:01.031Z,4.00
2022-09-12T02:21:34.504Z,3.42
2022-09-12T02:24:06.688Z,3.88
2022-09-12T02:26:43.700Z,3.75
2022-09-12T02:29:16.154Z,3.53
2022-09-12T02:32:01.320Z,3.67
2022-09-12T02:35:12.178Z,4.20
2022-09-12T02:37:56.460Z,4.05
2022-09-12T02:40:26.903Z,4.43
2022-09-12T02:42:56.256Z,4.93
2022-09-12T02:45:28.206Z,4.35
2022-09-12T02:48:01.844Z,6.85
2022-09-12T02:50:32.057Z,6.25
2022-09-12T02:53:06.987Z,4.40
2022-09-12T02:55:38.356Z,4.10
2022-09-12T02:58:12.180Z,4.25
2022-09-12T03:00:53.669Z,4.55
2022-09-12T03:03:23.851Z,4.00
2022-09-12T03:06:01.951Z,4.20
2022-09-12T03:08:51.224Z,4.55
2022-09-12T03:11:59.535Z,3.58
2022-09-12T03:15:02.943Z,3.67
2022-09-12T03:20:19.866Z,3.22
2022-09-12T03:23:01.047Z,3.50
2022-09-12T03:25:36.554Z,3.70
2022-09-12T03:28:13.246Z,3.22
2022-09-12T03:30:45.824Z,3.50
2022-09-12T03:35:46.616Z,3.13
2022-09-12T03:38:16.430Z,3.50
2022-09-12T03:40:54.107Z,3.28
2022-09-12T03:43:24.147Z,3.78
2022-09-12T03:45:55.250Z,3.88
2022-09-12T03:48:24.671Z,3.38
2022-09-12T03:50:53.907Z,3.00
2022-09-12T03:53:23.169Z,5.35
2022-09-12T03:55:52.398Z,3.17
2022-09-12T03:58:24.399Z,3.00
2022-09-12T04:00:53.992Z,3.20
2022-09-12T04:03:23.236Z,2.80
2022-09-12T04:05:52.540Z,2.50
2022-09-12T04:08:21.807Z,5.25
2022-09-12T04:10:51.031Z,3.05
2022-09-12T04:13:20.370Z,2.55
2022-09-12T04:16:00.279Z,2.67
2022-09-12T04:18:30.178Z,2.58
2022-09-12T04:21:00.069Z,2.78
2022-09-12T04:23:29.312Z,2.67
2022-09-12T04:26:00.934Z,2.63
2022-09-12T04:28:36.476Z,3.17
2022-09-12T04:31:10.543Z,2.53
2022-09-12T04:33:40.001Z,2.67
2022-09-12T04:36:11.837Z,2.53
2022-09-12T04:38:41.288Z,2.70
2022-09-12T04:41:16.354Z,2.65
2022-09-12T04:43:47.901Z,2.83
2022-09-12T04:46:21.358Z,3.28
2022-09-12T04:48:56.491Z,3.22
2022-09-12T04:51:30.101Z,2.65
2022-09-12T04:54:01.694Z,2.05
2022-09-12T04:56:32.079Z,2.75
2022-09-12T04:59:05.822Z,2.90
2022-09-12T05:01:35.717Z,2.67
2022-09-12T05:04:07.398Z,2.70
2022-09-12T05:06:38.648Z,3.20
2022-09-12T05:09:10.972Z,2.95
2022-09-12T05:12:03.370Z,2.83
2022-09-12T05:14:33.959Z,3.05
2022-09-12T05:17:04.698Z,3.10
2022-09-12T05:19:34.935Z,3.10
2022-09-12T05:22:06.364Z,3.60
2022-09-12T05:24:36.687Z,2.83
2022-09-12T05:27:06.217Z,2.65
2022-09-12T05:29:35.480Z,3.00
2022-09-12T05:32:05.369Z,3.03
2022-09-12T05:34:34.583Z,2.85
2022-09-12T05:37:03.826Z,2.80
2022-09-12T05:39:36.532Z,2.88
2022-09-12T05:42:07.552Z,2.85
2022-09-12T05:44:36.764Z,2.50
2022-09-12T05:47:06.057Z,2.80
2022-09-12T05:49:40.482Z,3.42
2022-09-12T05:52:10.097Z,3.10
2022-09-12T05:54:39.386Z,3.40
2022-09-12T05:57:08.596Z,2.78
2022-09-12T05:59:38.304Z,2.95
2022-09-12T06:02:08.088Z,3.47
2022-09-12T06:04:37.333Z,3.65
2022-09-12T06:07:07.535Z,3.55
2022-09-12T06:09:36.885Z,2.97
2022-09-12T06:12:06.795Z,2.88
2022-09-12T06:14:36.986Z,3.00
2022-09-12T06:17:06.985Z,7.88
2022-09-12T06:19:37.187Z,4.18
2022-09-12T06:22:06.885Z,3.60
2022-09-12T06:24:37.027Z,3.30
2022-09-12T06:27:06.569Z,3.30
2022-09-12T06:29:36.012Z,3.75
2022-09-12T06:32:05.257Z,3.40
2022-09-12T06:34:35.232Z,2.90
2022-09-12T06:37:05.374Z,2.70
2022-09-12T06:39:34.695Z,2.80
2022-09-12T06:42:03.848Z,2.40
2022-09-12T06:44:33.065Z,3.85
2022-09-12T06:47:02.350Z,3.70
2022-09-12T06:49:33.037Z,3.22
2022-09-12T06:52:03.564Z,3.03
2022-09-12T06:54:32.726Z,5.07
2022-09-12T06:57:02.265Z,3.63
2022-09-12T06:59:31.653Z,3.28
2022-09-12T07:02:03.391Z,3.83
2022-09-12T07:04:35.113Z,4.07
2022-09-12T07:07:04.429Z,4.05
2022-09-12T07:09:40.943Z,3.55
2022-09-12T07:12:13.676Z,3.72
2022-09-12T07:17:31.108Z,3.42
2022-09-12T07:20:04.702Z,3.17
2022-09-12T07:22:45.019Z,3.70
2022-09-12T07:25:14.326Z,3.42
2022-09-12T07:27:51.139Z,3.20
2022-09-12T07:30:21.178Z,3.70
2022-09-12T07:32:54.079Z,3.38
2022-09-12T07:35:24.875Z,4.15
2022-09-12T07:37:54.112Z,3.45
2022-09-12T07:40:24.533Z,3.65
2022-09-12T07:42:53.695Z,3.63
2022-09-12T07:45:23.933Z,3.45
2022-09-12T07:47:57.277Z,2.95
2022-09-12T07:50:26.480Z,3.42
2022-09-12T07:52:57.034Z,3.63
2022-09-12T07:55:26.845Z,3.13
2022-09-12T07:57:56.921Z,3.10
2022-09-12T08:00:26.093Z,3.40
2022-09-12T08:02:56.653Z,4.30
2022-09-12T08:05:25.935Z,3.30
2022-09-12T08:07:57.753Z,3.90
2022-09-12T08:10:27.119Z,3.17
2022-09-12T08:12:57.293Z,4.20
2022-09-12T08:15:26.736Z,4.20
2022-09-12T08:17:56.067Z,4.55
2022-09-12T08:20:28.401Z,4.65
2022-09-12T08:22:58.052Z,3.10
2022-09-12T08:25:30.581Z,3.15
2022-09-12T08:28:00.196Z,3.55
2022-09-12T08:30:30.918Z,3.00
2022-09-12T08:33:02.841Z,2.90
2022-09-12T08:35:32.753Z,3.30
2022-09-12T08:38:01.973Z,3.28
2022-09-12T08:40:34.068Z,3.42
2022-09-12T08:43:27.854Z,3.33
2022-09-12T08:46:07.839Z,3.85
2022-09-12T08:48:38.767Z,3.60
2022-09-12T08:51:12.739Z,3.50
2022-09-12T08:53:43.028Z,4.13
2022-09-12T08:56:14.675Z,3.10
2022-09-12T08:58:46.048Z,4.18
2022-09-12T09:01:38.374Z,3.85
2022-09-12T09:04:14.178Z,3.85
2022-09-12T09:06:45.333Z,4.10
2022-09-12T09:09:17.884Z,3.67
2022-09-12T09:11:49.745Z,3.58
2022-09-12T09:14:47.442Z,3.30
2022-09-12T09:17:28.176Z,2.95
2022-09-12T09:20:23.797Z,2.80
2022-09-12T09:23:19.934Z,2.75
2022-09-12T09:26:10.362Z,3.42
2022-09-12T09:29:01.020Z,2.67
2022-09-12T09:31:41.316Z,3.55
2022-09-12T09:34:32.953Z,3.17
2022-09-12T09:37:10.536Z,4.03
2022-09-12T09:40:03.512Z,12.73
2022-09-12T09:42:52.733Z,4.40
2022-09-12T09:45:27.187Z,3.80
2022-09-12T09:48:21.106Z,4.57
2022-09-12T09:50:52.296Z,3.47
2022-09-12T09:53:43.727Z,3.05
2022-09-12T09:56:29.375Z,3.60
2022-09-12T09:58:58.674Z,3.60
2022-09-12T10:01:30.116Z,3.50
2022-09-12T10:04:00.696Z,3.65
2022-09-12T10:06:35.705Z,4.45
2022-09-12T10:09:12.664Z,4.40
2022-09-12T10:11:45.774Z,4.40
2022-09-12T10:14:36.475Z,4.20
2022-09-12T10:17:25.800Z,4.05
2022-09-12T10:20:17.440Z,4.07
2022-09-12T10:22:50.218Z,4.20
2022-09-12T10:25:22.613Z,3.65
2022-09-12T10:27:59.031Z,3.78
2022-09-12T10:30:29.615Z,3.58
2022-09-12T10:33:08.432Z,3.58
2022-09-12T10:35:52.205Z,3.20
2022-09-12T10:38:29.329Z,3.65
2022-09-12T10:41:05.289Z,3.60
2022-09-12T10:43:37.446Z,3.88
2022-09-12T10:46:24.735Z,3.63
2022-09-12T10:49:21.083Z,3.30
2022-09-12T10:51:51.055Z,3.67
2022-09-12T10:54:22.806Z,3.90
2022-09-12T10:56:54.329Z,3.90
2022-09-12T11:00:02.687Z,3.55
2022-09-12T11:02:34.448Z,3.88
2022-09-12T11:05:12.962Z,3.75
2022-09-12T11:07:43.450Z,4.03
2022-09-12T11:10:36.783Z,4.70
2022-09-12T11:13:29.229Z,3.72
2022-09-12T11:16:04.241Z,3.88
2022-09-12T11:18:53.554Z,4.63
2022-09-12T11:21:50.345Z,3.30
2022-09-12T11:24:45.174Z,3.20
2022-09-12T11:27:36.986Z,3.28
2022-09-12T11:30:15.023Z,3.13
2022-09-12T11:33:35.634Z,2.90
2022-09-12T11:36:16.170Z,3.40
2022-09-12T11:38:52.988Z,3.50
2022-09-12T11:41:35.284Z,3.67
2022-09-12T11:44:15.466Z,3.17
2022-09-12T11:46:51.083Z,3.97
2022-09-12T11:49:32.432Z,3.17
2022-09-12T11:55:16.095Z,3.28
2022-09-12T11:57:52.189Z,3.70
2022-09-12T12:00:34.352Z,3.65
2022-09-12T12:03:16.373Z,3.67
2022-09-12T12:05:54.490Z,3.70
2022-09-12T12:08:25.117Z,3.53
2022-09-12T12:10:57.771Z,4.30
2022-09-12T12:13:33.489Z,4.10
2022-09-12T12:16:09.989Z,4.82
2022-09-12T12:18:42.223Z,4.70
2022-09-12T12:21:24.054Z,5.85
2022-09-12T12:24:21.174Z,5.05
2022-09-12T12:26:57.276Z,5.60
2022-09-12T12:29:39.187Z,6.65
2022-09-12T12:32:11.671Z,6.38
2022-09-12T12:34:43.059Z,6.20
2022-09-12T12:37:32.251Z,7.20
2022-09-12T12:40:09.175Z,6.30
2022-09-12T12:42:58.448Z,8.27
2022-09-12T12:45:31.964Z,9.52
2022-09-12T12:48:20.084Z,8.05
2022-09-12T12:50:49.892Z,8.30
2022-09-12T12:53:26.406Z,8.27
2022-09-12T12:55:58.217Z,9.40
2022-09-12T12:58:31.431Z,7.80
2022-09-12T13:01:19.318Z,8.30
2022-09-12T13:03:57.710Z,8.15
2022-09-12T13:06:36.345Z,8.10
2022-09-12T13:09:11.271Z,7.65
2022-09-12T13:11:42.266Z,8.18
2022-09-12T13:14:34.952Z,9.50
2022-09-12T13:17:09.612Z,8.68
2022-09-12T13:19:39.857Z,7.70
2022-09-12T13:22:11.075Z,7.88
2022-09-12T13:24:50.476Z,7.60
2022-09-12T13:27:21.336Z,6.93
2022-09-12T13:29:50.999Z,7.00
2022-09-12T13:32:20.532Z,7.65
2022-09-12T13:35:06.858Z,8.23
2022-09-12T13:37:56.055Z,8.20
2022-09-12T13:40:27.188Z,8.02
2022-09-12T13:43:18.738Z,8.38
2022-09-12T13:45:49.363Z,8.32
2022-09-12T13:48:23.430Z,7.95
2022-09-12T13:50:59.530Z,7.15
2022-09-12T13:53:34.013Z,8.52
2022-09-12T13:56:05.043Z,7.75
2022-09-12T13:58:36.653Z,7.18
2022-09-12T14:01:10.839Z,8.18
2022-09-12T14:04:12.053Z,8.02
2022-09-12T14:06:49.149Z,7.55
2022-09-12T14:09:27.678Z,7.65
2022-09-12T14:11:57.875Z,7.82
2022-09-12T14:14:38.000Z,8.30
2022-09-12T14:17:34.324Z,7.80
2022-09-12T14:20:07.678Z,8.57
2022-09-12T14:22:37.738Z,8.10
2022-09-12T14:25:10.343Z,8.52
2022-09-12T14:27:54.139Z,9.23
2022-09-12T14:30:34.737Z,7.43
2022-09-12T14:33:12.408Z,9.40
2022-09-12T14:35:47.474Z,8.55
2022-09-12T14:38:18.604Z,8.40
2022-09-12T14:40:50.402Z,8.38
2022-09-12T14:43:36.766Z,9.45
2022-09-12T14:46:21.905Z,8.80
2022-09-12T14:48:55.616Z,8.40
2022-09-12T14:51:29.569Z,9.30
2022-09-12T14:53:59.856Z,9.23
2022-09-12T14:56:55.613Z,8.52
2022-09-12T14:59:42.199Z,8.70
2022-09-12T15:02:31.183Z,8.57
2022-09-12T15:05:08.858Z,8.38
2022-09-12T15:07:39.436Z,9.13
2022-09-12T15:10:30.526Z,8.15
2022-09-12T15:13:18.256Z,8.13
2022-09-12T15:15:51.452Z,9.30
2022-09-12T15:18:23.411Z,8.57
2022-09-12T15:20:57.670Z,7.93
2022-09-12T15:23:52.465Z,8.23
2022-09-12T15:26:28.824Z,8.13
2022-09-12T15:28:58.008Z,8.27
2022-09-12T15:31:29.971Z,7.20
2022-09-12T15:34:01.339Z,8.13
2022-09-12T15:36:30.991Z,7.82
2022-09-12T15:39:00.386Z,7.60
2022-09-12T15:41:31.487Z,8.13
2022-09-12T15:44:00.972Z,7.22
2022-09-12T15:46:30.140Z,8.25
2022-09-12T15:48:59.356Z,7.90
2022-09-12T15:51:28.427Z,9.13
2022-09-12T15:53:57.597Z,7.95
2022-09-12T15:56:26.963Z,8.02
2022-09-12T15:58:59.199Z,8.55
2022-09-12T16:01:30.533Z,8.65
2022-09-12T16:04:00.042Z,8.25
2022-09-12T16:06:36.317Z,7.97
2022-09-12T16:09:06.411Z,8.45
2022-09-12T16:11:35.993Z,7.50
2022-09-12T16:14:06.508Z,8.07
2022-09-12T16:16:37.123Z,7.78
2022-09-12T16:19:06.520Z,7.72
2022-09-12T16:21:35.850Z,7.68
2022-09-12T16:24:09.106Z,7.93
2022-09-12T16:26:38.418Z,7.78
2022-09-12T16:29:10.119Z,8.70
2022-09-12T16:31:40.640Z,7.72
2022-09-12T16:34:10.036Z,8.73
2022-09-12T16:36:39.885Z,8.30
2022-09-12T16:39:09.251Z,8.20
2022-09-12T16:41:38.588Z,8.98
2022-09-12T16:44:08.065Z,8.88
2022-09-12T16:46:37.260Z,7.63
2022-09-12T16:49:07.838Z,7.85
2022-09-12T16:51:38.139Z,8.27
2022-09-12T16:54:10.324Z,8.57
2022-09-12T16:56:40.010Z,8.05
2022-09-12T17:03:05.548Z,8.32
2022-09-12T17:05:34.807Z,7.72
2022-09-12T17:08:04.476Z,8.38
2022-09-12T17:10:34.114Z,8.57
2022-09-12T17:13:04.332Z,8.52
2022-09-12T17:15:33.492Z,9.05
2022-09-12T17:18:02.605Z,9.27
2022-09-12T17:20:31.687Z,8.95
2022-09-12T17:23:01.568Z,8.57
2022-09-12T17:25:30.940Z,7.20
2022-09-12T17:28:00.071Z,7.93
2022-09-12T17:30:29.241Z,7.95
2022-09-12T17:32:58.440Z,8.52
2022-09-12T17:35:27.556Z,7.15
2022-09-12T17:37:56.851Z,7.50
2022-09-12T17:40:42.436Z,7.40
2022-09-12T17:43:16.462Z,7.85
2022-09-12T17:45:45.607Z,7.68
2022-09-12T17:48:14.750Z,6.80
2022-09-12T17:50:47.081Z,7.50
2022-09-12T17:53:16.208Z,7.95
2022-09-12T17:55:45.345Z,7.45
2022-09-12T17:58:14.557Z,7.55
2022-09-12T18:01:03.345Z,7.40
2022-09-12T18:03:32.466Z,7.50
2022-09-12T18:06:02.387Z,7.78
2022-09-12T18:08:31.603Z,7.65
2022-09-12T18:11:06.927Z,7.70
2022-09-12T18:13:36.750Z,8.98
2022-09-12T18:16:08.341Z,9.32
2022-09-12T18:18:38.510Z,8.43
2022-09-12T18:21:09.827Z,8.98
2022-09-12T18:23:39.039Z,8.23
2022-09-12T18:26:10.247Z,8.60
2022-09-12T18:28:42.339Z,7.97
2022-09-12T18:31:17.653Z,8.35
2022-09-12T18:33:47.865Z,9.05
2022-09-12T18:36:18.530Z,8.77
2022-09-12T18:38:49.188Z,8.52
2022-09-12T18:41:22.035Z,8.63
2022-09-12T18:43:55.735Z,8.82
2022-09-12T18:46:25.784Z,10.63
2022-09-12T18:48:59.011Z,9.73
2022-09-12T18:51:32.903Z,9.35
2022-09-12T18:54:05.146Z,10.20
2022-09-12T18:56:36.495Z,8.32
2022-09-12T18:59:07.066Z,8.45
2022-09-12T19:01:39.150Z,7.68
2022-09-12T19:04:11.122Z,8.88
2022-09-12T19:06:43.182Z,7.77
2022-09-12T19:09:14.353Z,8.10
2022-09-12T19:11:50.328Z,7.85
2022-09-12T19:14:23.900Z,7.85
2022-09-12T19:16:53.554Z,7.82
2022-09-12T19:19:22.922Z,8.10
2022-09-12T19:21:52.020Z,8.05
2022-09-12T19:24:23.120Z,8.00
2022-09-12T19:26:53.036Z,7.20
2022-09-12T19:29:22.166Z,8.15
2022-09-12T19:31:51.333Z,6.75
2022-09-12T19:34:20.468Z,6.95
2022-09-12T19:36:49.673Z,7.10
2022-09-12T19:39:21.076Z,7.38
2022-09-12T19:41:50.594Z,7.20
2022-09-12T19:44:20.974Z,7.50
2022-09-12T19:46:50.269Z,7.68
2022-09-12T19:49:19.407Z,7.15
2022-09-12T19:51:48.603Z,7.32
2022-09-12T19:54:17.696Z,6.63
2022-09-12T19:56:46.797Z,6.88
2022-09-12T19:59:15.959Z,8.13
2022-09-12T20:01:45.160Z,8.48
2022-09-12T20:04:14.376Z,8.02
2022-09-12T20:06:43.727Z,8.40
2022-09-12T20:09:13.198Z,7.93
2022-09-12T20:11:42.502Z,8.20
2022-09-12T20:14:11.724Z,8.27
2022-09-12T20:16:40.827Z,8.25
2022-09-12T20:19:10.098Z,8.40
2022-09-12T20:21:39.434Z,8.27
2022-09-12T20:24:12.336Z,7.75
2022-09-12T20:26:42.223Z,8.73
2022-09-12T20:29:11.981Z,9.35
2022-09-12T20:31:43.058Z,9.35
2022-09-12T20:34:17.669Z,10.95
2022-09-12T20:36:47.662Z,11.40
2022-09-12T20:39:20.685Z,12.13
2022-09-12T20:41:50.129Z,11.70
2022-09-12T20:44:19.368Z,12.30
2022-09-12T20:46:48.609Z,12.57
2022-09-12T20:49:17.779Z,12.25
2022-09-12T20:51:46.949Z,11.23
2022-09-12T20:54:16.085Z,11.43
2022-09-12T20:56:46.269Z,11.75
2022-09-12T20:59:15.538Z,12.05
2022-09-12T21:01:45.427Z,12.15
2022-09-12T21:04:15.318Z,13.23
2022-09-12T21:06:44.611Z,12.73
2022-09-12T21:09:13.731Z,12.75
2022-09-12T21:11:43.094Z,12.68
2022-09-12T21:14:12.339Z,12.77
2022-09-12T21:16:41.442Z,11.55
2022-09-12T21:19:10.632Z,12.63
2022-09-12T21:21:39.881Z,12.02
2022-09-12T21:24:09.863Z,12.55
2022-09-12T21:26:39.026Z,13.30
2022-09-12T21:29:08.182Z,11.80
2022-09-12T21:31:37.341Z,11.57
2022-09-12T21:34:06.529Z,12.68
2022-09-12T21:36:35.648Z,12.10
2022-09-12T21:39:04.828Z,13.82
2022-09-12T21:41:33.975Z,14.00
2022-09-12T21:44:03.310Z,13.77
2022-09-12T21:46:32.472Z,14.95
2022-09-12T21:49:01.740Z,15.27
2022-09-12T21:51:30.883Z,14.70
2022-09-12T21:54:00.098Z,14.55
2022-09-12T21:56:29.263Z,14.82
2022-09-12T21:58:58.398Z,15.25
2022-09-12T22:01:30.408Z,13.55
2022-09-12T22:03:59.784Z,14.63
2022-09-12T22:06:28.988Z,14.68
2022-09-12T22:08:58.142Z,13.80
2022-09-12T22:11:27.232Z,15.13
2022-09-12T22:13:56.465Z,14.48
2022-09-12T22:16:25.629Z,16.27
2022-09-12T22:18:55.694Z,17.00
2022-09-12T22:21:25.785Z,16.40
2022-09-12T22:24:14.488Z,15.63
2022-09-12T22:26:47.587Z,15.88
2022-09-12T22:29:16.723Z,15.02
2022-09-12T22:31:45.958Z,16.65
2022-09-12T22:34:15.622Z,17.63
2022-09-12T22:36:45.273Z,16.70
2022-09-12T22:39:14.516Z,14.23
2022-09-12T22:41:43.643Z,18.10
2022-09-12T22:44:13.578Z,18.30
2022-09-12T22:46:42.845Z,18.02
2022-09-12T22:49:12.125Z,28.83
2022-09-12T22:51:41.380Z,19.15
2022-09-12T22:54:11.683Z,18.13
2022-09-12T22:56:41.436Z,19.02
2022-09-12T22:59:10.657Z,19.52
2022-09-12T23:01:39.766Z,21.05
2022-09-12T23:04:11.548Z,20.45
2022-09-12T23:06:40.634Z,21.02
2022-09-12T23:09:09.743Z,21.13
2022-09-12T23:11:38.911Z,21.27
2022-09-12T23:14:08.033Z,21.65
2022-09-12T23:16:37.238Z,20.58
2022-09-12T23:19:06.464Z,20.88
2022-09-12T23:21:35.694Z,20.52
2022-09-12T23:24:05.375Z,19.50
2022-09-12T23:26:34.817Z,20.45
2022-09-12T23:29:07.001Z,21.05
2022-09-12T23:31:36.966Z,21.30
2022-09-12T23:34:08.333Z,21.45
2022-09-12T23:36:37.767Z,23.25
2022-09-12T23:39:07.202Z,20.63
2022-09-12T23:41:36.381Z,20.35
2022-09-12T23:44:05.582Z,20.40
2022-09-12T23:46:34.773Z,21.20
2022-09-12T23:49:03.897Z,21.00
2022-09-12T23:51:33.113Z,18.42
2022-09-12T23:54:02.262Z,19.75
2022-09-12T23:56:31.391Z,18.55
2022-09-12T23:59:00.595Z,17.38
